Time;durP1;ratioP1;P1;durP2;ratioP2;P2;SDS_P1;SDS_P2;PMS_P1;PMS_P2;Temp;Humidity;BMP_temperature;BMP_pressure;BME280_temperature;BME280_humidity;BME280_pressure;Samples;Min_cycle;Max_cycle;Signal;HPM_P1;HPM_P2
2021/11/21 00:01:41;;;;;;;15.00;11.20;;;6.90;99.90;;;;;;5076457;28;20260;-55
2021/11/21 00:04:06;;;;;;;14.00;11.07;;;6.90;99.90;;;;;;5083405;28;20644;-55
2021/11/21 00:06:32;;;;;;;15.10;10.30;;;6.80;99.90;;;;;;5071722;28;20204;-55
2021/11/21 00:08:58;;;;;;;12.33;10.23;;;6.70;99.90;;;;;;5070990;28;20644;-55
2021/11/21 00:11:23;;;;;;;13.97;10.13;;;6.90;99.90;;;;;;5073525;28;20243;-56
2021/11/21 00:13:50;;;;;;;16.47;10.43;;;7.10;99.90;;;;;;5087311;28;20721;-55
2021/11/21 00:16:16;;;;;;;12.10;9.85;;;6.90;99.90;;;;;;5081458;28;20652;-56
2021/11/21 00:18:42;;;;;;;13.35;10.48;;;6.70;99.90;;;;;;5083658;28;20206;-55
2021/11/21 00:21:08;;;;;;;13.23;10.27;;;6.30;99.90;;;;;;5070936;28;20198;-55
2021/11/21 00:23:34;;;;;;;13.87;10.20;;;6.80;99.90;;;;;;5079719;28;20265;-55
2021/11/21 00:25:59;;;;;;;12.00;9.33;;;6.70;99.90;;;;;;5092972;28;20921;-53
2021/11/21 00:28:25;;;;;;;12.47;9.93;;;6.60;99.90;;;;;;5070672;28;20181;-54
2021/11/21 00:30:51;;;;;;;11.97;9.70;;;6.60;99.90;;;;;;5071151;28;20208;-54
2021/11/21 00:33:17;;;;;;;11.20;10.03;;;6.30;99.90;;;;;;5071309;28;20492;-54
2021/11/21 00:35:43;;;;;;;11.73;9.93;;;6.60;99.90;;;;;;5076137;28;20207;-54
2021/11/21 00:38:08;;;;;;;15.30;11.00;;;6.50;99.90;;;;;;5090690;28;20490;-54
2021/11/21 00:40:34;;;;;;;11.90;9.90;;;6.80;99.90;;;;;;5074905;28;20646;-53
2021/11/21 00:43:00;;;;;;;12.03;9.13;;;6.50;99.90;;;;;;5070891;28;20631;-55
2021/11/21 00:45:28;;;;;;;11.25;9.35;;;6.50;99.90;;;;;;5070984;28;20434;-55
2021/11/21 00:47:54;;;;;;;10.35;9.23;;;6.50;99.90;;;;;;5070237;28;20290;-55
2021/11/21 00:50:25;;;;;;;12.18;9.65;;;6.30;99.90;;;;;;5090176;28;20200;-55
2021/11/21 00:52:57;;;;;;;12.00;9.63;;;5.90;99.90;;;;;;5084357;28;20271;-54
2021/11/21 00:55:35;;;;;;;13.20;10.15;;;6.60;99.90;;;;;;5071092;28;20192;-55
2021/11/21 00:58:02;;;;;;;13.35;11.50;;;6.20;99.90;;;;;;5073145;28;20688;-55
2021/11/21 01:00:28;;;;;;;15.70;11.18;;;6.70;99.90;;;;;;5070379;28;20564;-55
2021/11/21 01:02:54;;;;;;;13.37;10.70;;;5.90;99.90;;;;;;5070675;28;20184;-55
2021/11/21 01:05:19;;;;;;;12.33;10.13;;;6.40;99.90;;;;;;5089016;28;20213;-55
2021/11/21 01:07:45;;;;;;;11.17;9.97;;;6.60;99.90;;;;;;5090452;28;20184;-54
2021/11/21 01:10:14;;;;;;;12.87;10.17;;;6.20;99.90;;;;;;5074345;28;20645;-55
2021/11/21 01:12:40;;;;;;;12.43;10.18;;;6.40;99.90;;;;;;5083478;28;20269;-56
2021/11/21 01:15:09;;;;;;;10.73;8.70;;;6.20;99.90;;;;;;5090668;28;20202;-55
2021/11/21 01:17:35;;;;;;;11.55;9.35;;;6.40;99.90;;;;;;5089399;28;20649;-55
2021/11/21 01:20:00;;;;;;;11.60;9.20;;;6.40;99.90;;;;;;5074220;28;20234;-55
2021/11/21 01:22:28;;;;;;;11.30;8.80;;;6.20;99.90;;;;;;5074376;28;20189;-54
2021/11/21 01:24:55;;;;;;;9.77;8.77;;;6.40;99.90;;;;;;5073736;28;20191;-55
2021/11/21 01:27:22;;;;;;;9.63;7.78;;;6.30;99.90;;;;;;5085892;28;20184;-55
2021/11/21 01:29:48;;;;;;;9.38;7.88;;;6.50;99.90;;;;;;5072087;28;20660;-55
2021/11/21 01:32:14;;;;;;;10.45;8.48;;;6.30;99.90;;;;;;5071335;28;20188;-54
2021/11/21 01:34:39;;;;;;;8.27;7.23;;;5.60;99.90;;;;;;5071787;28;20187;-55
2021/11/21 01:37:05;;;;;;;7.10;6.30;;;6.10;99.90;;;;;;5070562;28;20197;-55
2021/11/21 01:39:30;;;;;;;7.30;6.60;;;6.40;99.90;;;;;;5079084;28;20209;-55
2021/11/21 01:41:56;;;;;;;8.17;7.27;;;6.20;99.90;;;;;;5087920;28;20591;-55
2021/11/21 01:44:22;;;;;;;7.27;6.30;;;6.10;99.90;;;;;;5073098;28;20229;-55
2021/11/21 01:46:51;;;;;;;8.57;7.33;;;5.70;99.90;;;;;;5084411;28;20221;-55
2021/11/21 01:49:17;;;;;;;7.57;6.70;;;6.10;99.90;;;;;;5077552;28;20670;-55
2021/11/21 01:51:42;;;;;;;9.75;7.55;;;6.40;99.90;;;;;;5089372;28;20251;-55
2021/11/21 01:54:09;;;;;;;8.73;7.83;;;6.20;99.90;;;;;;5075725;28;20194;-55
2021/11/21 01:56:35;;;;;;;9.82;8.25;;;6.10;99.90;;;;;;5086684;28;20260;-55
2021/11/21 01:59:01;;;;;;;7.90;7.05;;;6.20;99.90;;;;;;5083506;28;20205;-54
2021/11/21 02:01:27;;;;;;;9.10;6.95;;;5.60;99.90;;;;;;5086899;28;20225;-54
2021/11/21 02:03:53;;;;;;;9.27;7.17;;;6.20;99.90;;;;;;5079401;28;20250;-54
2021/11/21 02:06:18;;;;;;;8.63;7.20;;;5.80;99.90;;;;;;5087483;28;20186;-54
2021/11/21 02:08:44;;;;;;;9.17;6.20;;;6.20;99.90;;;;;;5081360;28;20188;-54
2021/11/21 02:11:10;;;;;;;7.60;6.80;;;6.10;99.90;;;;;;5062591;28;20450;-54
2021/11/21 02:13:36;;;;;;;8.90;7.60;;;6.10;99.90;;;;;;5072296;28;20427;-54
2021/11/21 02:16:02;;;;;;;8.53;7.57;;;6.10;99.90;;;;;;5065144;28;20237;-54
2021/11/21 02:18:27;;;;;;;8.93;7.40;;;6.20;99.90;;;;;;5077786;28;20198;-54
2021/11/21 02:20:55;;;;;;;8.73;7.83;;;6.10;99.90;;;;;;5069900;28;20465;-54
2021/11/21 02:23:23;;;;;;;7.80;7.05;;;5.30;99.90;;;;;;5087499;28;20735;-54
2021/11/21 02:25:50;;;;;;;8.90;7.57;;;5.70;99.90;;;;;;5080661;28;20177;-54
2021/11/21 02:28:16;;;;;;;8.45;7.57;;;6.10;99.90;;;;;;5079109;28;20179;-54
2021/11/21 02:30:43;;;;;;;8.10;7.30;;;5.80;99.90;;;;;;5073140;28;20212;-54
2021/11/21 02:33:13;;;;;;;8.40;7.43;;;5.90;99.90;;;;;;5074480;28;20964;-54
2021/11/21 02:35:41;;;;;;;8.10;7.30;;;5.80;99.90;;;;;;5090980;28;20182;-54
2021/11/21 02:38:10;;;;;;;7.88;7.07;;;5.30;99.90;;;;;;5094230;28;20240;-55
2021/11/21 02:40:36;;;;;;;7.53;6.40;;;6.00;99.90;;;;;;5073952;28;20218;-54
2021/11/21 02:43:02;;;;;;;7.20;6.50;;;6.20;99.90;;;;;;5073643;28;20185;-54
2021/11/21 02:45:28;;;;;;;8.07;7.10;;;5.80;99.90;;;;;;5073335;28;20179;-54
2021/11/21 02:47:54;;;;;;;6.70;6.00;;;5.80;99.90;;;;;;5073199;28;20255;-54
2021/11/21 02:50:22;;;;;;;8.00;6.57;;;6.00;99.90;;;;;;5072865;28;20956;-54
2021/11/21 02:52:50;;;;;;;6.85;6.15;;;5.80;99.90;;;;;;5081979;28;20274;-54
2021/11/21 02:55:17;;;;;;;6.75;6.15;;;5.80;99.90;;;;;;5079500;28;20196;-53
2021/11/21 02:57:43;;;;;;;8.80;7.13;;;5.70;99.90;;;;;;5087191;28;20221;-54
2021/11/21 03:00:12;;;;;;;11.10;6.90;;;5.50;99.90;;;;;;5078044;28;20218;-54
2021/11/21 03:02:43;;;;;;;6.35;5.57;;;5.30;99.90;;;;;;5079810;28;20431;-54
2021/11/21 03:05:09;;;;;;;8.18;6.63;;;5.60;99.90;;;;;;5077804;28;20659;-54
2021/11/21 03:07:35;;;;;;;8.18;6.00;;;5.50;99.90;;;;;;5074741;28;20198;-54
2021/11/21 03:10:01;;;;;;;8.17;6.50;;;5.00;99.90;;;;;;5084724;28;20771;-53
2021/11/21 03:12:27;;;;;;;7.03;6.07;;;5.00;99.90;;;;;;5083353;28;20193;-54
2021/11/21 03:14:53;;;;;;;6.93;6.20;;;5.30;99.90;;;;;;5084038;28;20248;-53
2021/11/21 03:17:20;;;;;;;7.10;5.73;;;5.40;99.90;;;;;;5084717;28;20200;-54
2021/11/21 03:19:46;;;;;;;7.70;6.47;;;5.50;99.90;;;;;;5083117;28;20208;-53
2021/11/21 03:22:12;;;;;;;7.90;6.97;;;5.40;99.90;;;;;;5060921;28;20180;-54
2021/11/21 03:24:38;;;;;;;9.40;6.80;;;5.50;99.90;;;;;;5077377;28;20902;-54
2021/11/21 03:27:04;;;;;;;7.88;7.07;;;5.50;99.90;;;;;;5076798;28;20178;-54
2021/11/21 03:29:29;;;;;;;10.47;7.57;;;5.60;99.90;;;;;;5086149;28;20196;-54
2021/11/21 03:31:55;;;;;;;12.27;8.27;;;5.30;99.90;;;;;;5079221;28;20466;-54
2021/11/21 03:34:21;;;;;;;10.80;7.60;;;5.50;99.90;;;;;;5074202;28;20186;-54
2021/11/21 03:36:47;;;;;;;12.17;8.27;;;4.80;99.90;;;;;;5089174;28;20213;-54
2021/11/21 03:39:12;;;;;;;9.13;7.50;;;5.60;99.90;;;;;;5080135;28;20266;-54
2021/11/21 03:41:38;;;;;;;9.63;7.73;;;5.60;99.90;;;;;;5087229;28;20448;-54
2021/11/21 03:44:06;;;;;;;7.38;5.95;;;5.40;99.90;;;;;;5087018;28;20225;-54
2021/11/21 03:46:32;;;;;;;7.35;6.55;;;5.50;99.90;;;;;;5078785;28;20244;-54
2021/11/21 03:48:58;;;;;;;8.57;6.50;;;5.30;99.90;;;;;;5075239;28;20198;-54
2021/11/21 03:51:24;;;;;;;7.40;6.30;;;5.40;99.90;;;;;;5074770;28;20226;-54
2021/11/21 03:53:50;;;;;;;8.70;6.60;;;5.10;99.90;;;;;;5081958;28;20618;-54
2021/11/21 03:56:15;;;;;;;8.13;6.70;;;5.40;99.90;;;;;;5082583;28;20265;-54
2021/11/21 03:58:41;;;;;;;7.20;6.50;;;5.70;99.90;;;;;;5087145;28;20199;-54
2021/11/21 04:01:07;;;;;;;7.30;5.87;;;5.60;99.90;;;;;;5081564;28;20241;-54
2021/11/21 04:03:33;;;;;;;7.33;6.43;;;5.50;99.90;;;;;;5081874;28;20223;-54
2021/11/21 04:05:58;;;;;;;6.15;5.55;;;5.70;99.90;;;;;;5079929;28;20185;-53
2021/11/21 04:08:24;;;;;;;6.70;6.07;;;5.60;99.90;;;;;;5080852;28;20557;-53
2021/11/21 04:10:50;;;;;;;6.83;6.00;;;5.70;99.90;;;;;;5078764;28;20210;-54
2021/11/21 04:13:16;;;;;;;6.50;5.83;;;5.50;99.90;;;;;;5084832;28;20178;-54
2021/11/21 04:15:41;;;;;;;7.50;6.80;;;5.30;99.90;;;;;;5081153;28;20436;-54
2021/11/21 04:18:09;;;;;;;6.10;5.37;;;5.30;99.90;;;;;;5073387;28;20190;-54
2021/11/21 04:20:35;;;;;;;7.93;5.50;;;5.20;99.90;;;;;;5086806;28;20812;-53
2021/11/21 04:23:01;;;;;;;7.30;5.82;;;5.20;99.90;;;;;;5079399;28;20963;-54
2021/11/21 04:25:26;;;;;;;8.00;6.57;;;5.30;99.90;;;;;;5076330;28;20188;-54
2021/11/21 04:27:52;;;;;;;6.67;5.97;;;5.40;99.90;;;;;;5075194;28;20443;-54
2021/11/21 04:30:18;;;;;;;6.70;5.80;;;5.20;99.90;;;;;;5072033;28;20212;-54
2021/11/21 04:32:45;;;;;;;7.07;5.63;;;5.20;99.90;;;;;;5075286;28;20589;-54
2021/11/21 04:35:14;;;;;;;7.03;5.40;;;5.50;99.90;;;;;;5081718;28;20190;-54
2021/11/21 04:37:41;;;;;;;7.65;6.63;;;5.20;99.90;;;;;;5082386;28;20198;-54
2021/11/21 04:40:08;;;;;;;7.88;5.95;;;5.30;99.90;;;;;;5079082;28;20223;-55
2021/11/21 04:42:35;;;;;;;7.15;6.28;;;5.20;99.90;;;;;;5082134;28;20190;-53
2021/11/21 04:45:00;;;;;;;9.68;6.30;;;4.90;99.90;;;;;;5082799;28;20199;-54
2021/11/21 04:47:26;;;;;;;6.93;5.90;;;5.30;99.90;;;;;;5073910;28;20262;-53
2021/11/21 04:49:52;;;;;;;7.35;6.18;;;5.30;99.90;;;;;;5078331;28;20210;-53
2021/11/21 04:52:19;;;;;;;8.00;6.30;;;4.60;99.90;;;;;;5076758;28;20705;-54
2021/11/21 04:54:45;;;;;;;7.80;5.80;;;5.20;99.90;;;;;;5073952;28;20476;-54
2021/11/21 04:57:10;;;;;;;9.25;5.63;;;5.20;99.90;;;;;;5075135;28;20205;-54
2021/11/21 04:59:36;;;;;;;6.00;5.37;;;5.20;99.90;;;;;;5076183;28;20236;-54
2021/11/21 05:02:04;;;;;;;6.47;5.68;;;5.20;99.90;;;;;;5072926;28;20222;-53
2021/11/21 05:04:30;;;;;;;6.15;5.55;;;5.20;99.90;;;;;;5070429;28;20646;-53
2021/11/21 05:06:56;;;;;;;6.22;5.32;;;4.90;99.90;;;;;;5086396;28;20192;-54
2021/11/21 05:09:21;;;;;;;5.97;5.00;;;5.10;99.90;;;;;;5077545;28;20192;-54
2021/11/21 05:11:47;;;;;;;5.93;4.87;;;4.30;99.90;;;;;;5083636;28;20209;-53
2021/11/21 05:14:16;;;;;;;5.90;5.30;;;4.90;99.90;;;;;;5079453;28;20184;-54
2021/11/21 05:16:41;;;;;;;8.35;5.32;;;5.30;99.90;;;;;;5078684;28;20436;-53
2021/11/21 05:19:07;;;;;;;7.20;4.87;;;5.00;99.90;;;;;;5082670;28;20217;-53
2021/11/21 05:21:33;;;;;;;5.67;5.07;;;5.10;99.90;;;;;;5084941;28;20204;-54
2021/11/21 05:24:00;;;;;;;6.50;5.47;;;4.70;99.90;;;;;;5072116;28;20220;-53
2021/11/21 05:26:26;;;;;;;6.35;5.07;;;5.00;99.90;;;;;;5084012;28;20177;-53
2021/11/21 05:28:52;;;;;;;5.67;5.03;;;5.00;99.90;;;;;;5071806;28;20181;-53
2021/11/21 05:31:18;;;;;;;6.73;5.67;;;4.90;99.90;;;;;;5066930;28;20205;-54
2021/11/21 05:33:43;;;;;;;7.03;5.63;;;4.90;99.90;;;;;;5071190;28;20472;-53
2021/11/21 05:36:09;;;;;;;6.67;5.17;;;4.80;99.90;;;;;;5081545;28;20270;-53
2021/11/21 05:38:34;;;;;;;6.27;5.10;;;4.80;99.90;;;;;;5077375;28;20192;-54
2021/11/21 05:41:00;;;;;;;7.33;5.10;;;5.10;99.90;;;;;;5056815;28;20228;-53
2021/11/21 05:43:26;;;;;;;6.73;5.40;;;4.80;99.90;;;;;;5079463;28;20277;-53
2021/11/21 05:45:52;;;;;;;5.90;5.17;;;4.90;99.90;;;;;;5064335;28;20792;-54
2021/11/21 05:48:18;;;;;;;6.40;4.90;;;4.80;99.90;;;;;;5072667;28;20651;-53
2021/11/21 05:50:43;;;;;;;6.43;5.00;;;4.10;99.90;;;;;;5075173;28;20468;-54
2021/11/21 05:53:09;;;;;;;5.63;4.77;;;4.60;99.90;;;;;;5083815;28;20910;-54
2021/11/21 05:55:35;;;;;;;5.97;4.77;;;4.70;99.90;;;;;;5074835;28;20592;-54
2021/11/21 05:58:00;;;;;;;6.70;4.93;;;4.60;99.90;;;;;;5083046;28;20216;-54
2021/11/21 06:00:27;;;;;;;6.77;5.17;;;5.00;99.90;;;;;;5074924;28;20220;-54
2021/11/21 06:02:53;;;;;;;6.43;4.68;;;5.00;99.90;;;;;;5075205;28;20181;-54
2021/11/21 06:05:19;;;;;;;5.70;4.43;;;5.00;99.90;;;;;;5073128;28;20270;-54
2021/11/21 06:07:45;;;;;;;5.80;4.57;;;4.80;99.90;;;;;;5082273;28;20207;-54
2021/11/21 06:10:12;;;;;;;7.20;4.78;;;4.80;99.90;;;;;;5085636;28;20471;-53
2021/11/21 06:12:38;;;;;;;5.20;4.10;;;5.00;99.90;;;;;;5089270;28;20193;-53
2021/11/21 06:15:04;;;;;;;5.82;4.50;;;4.70;99.90;;;;;;5078444;28;20272;-54
2021/11/21 06:17:30;;;;;;;6.07;4.72;;;5.10;99.90;;;;;;5081607;28;20189;-53
2021/11/21 06:19:56;;;;;;;6.70;4.97;;;4.80;99.90;;;;;;5082571;28;20260;-54
2021/11/21 06:22:22;;;;;;;6.23;4.80;;;4.90;99.90;;;;;;5085518;28;20863;-53
2021/11/21 06:24:48;;;;;;;7.72;5.00;;;5.10;99.90;;;;;;5079497;28;20250;-54
2021/11/21 06:27:14;;;;;;;7.60;5.70;;;5.10;99.90;;;;;;5082562;28;20211;-53
2021/11/21 06:29:40;;;;;;;9.30;5.93;;;4.90;99.90;;;;;;5080458;28;21019;-53
2021/11/21 06:32:06;;;;;;;8.25;5.22;;;5.10;99.90;;;;;;5077495;28;20244;-53
2021/11/21 06:34:32;;;;;;;7.65;5.13;;;5.00;99.90;;;;;;5075852;28;20186;-54
2021/11/21 06:36:58;;;;;;;7.43;5.28;;;5.00;99.90;;;;;;5075744;28;20196;-54
2021/11/21 06:39:24;;;;;;;6.53;5.23;;;4.80;99.90;;;;;;5085873;28;20542;-54
2021/11/21 06:41:50;;;;;;;8.83;5.90;;;4.80;99.90;;;;;;5093143;28;20811;-53
2021/11/21 06:44:16;;;;;;;6.47;4.53;;;4.80;99.90;;;;;;5080670;28;20426;-54
2021/11/21 06:46:42;;;;;;;8.13;4.57;;;5.00;99.90;;;;;;5091431;28;20680;-54
2021/11/21 06:49:07;;;;;;;6.97;5.00;;;4.40;99.90;;;;;;5083972;28;20184;-54
2021/11/21 06:51:34;;;;;;;6.80;4.80;;;4.90;99.90;;;;;;5081360;28;20224;-54
2021/11/21 06:54:00;;;;;;;6.88;4.60;;;5.00;99.90;;;;;;5082290;28;20185;-53
2021/11/21 06:56:29;;;;;;;6.45;5.68;;;5.00;99.90;;;;;;5081718;28;20177;-55
2021/11/21 06:58:56;;;;;;;5.75;4.60;;;4.90;99.90;;;;;;5085628;28;20181;-54
2021/11/21 07:01:22;;;;;;;9.60;4.97;;;5.00;99.90;;;;;;5078781;28;20827;-54
2021/11/21 07:03:47;;;;;;;7.23;5.30;;;5.00;99.90;;;;;;5076433;28;20191;-54
2021/11/21 07:06:28;;;;;;;5.80;4.70;;;5.00;99.90;;;;;;5054665;28;20435;-54
2021/11/21 07:08:54;;;;;;;7.20;5.43;;;4.80;99.90;;;;;;5071678;28;20186;-54
2021/11/21 07:11:21;;;;;;;7.77;5.03;;;4.80;99.90;;;;;;5077803;28;20937;-55
2021/11/21 07:13:47;;;;;;;6.03;5.10;;;5.30;99.90;;;;;;5085325;28;20185;-55
2021/11/21 07:16:12;;;;;;;7.67;5.50;;;4.90;99.90;;;;;;5074986;28;20208;-54
2021/11/21 07:18:38;;;;;;;6.30;4.90;;;4.90;99.90;;;;;;5077960;28;20190;-54
2021/11/21 07:21:04;;;;;;;4.80;3.93;;;4.70;99.90;;;;;;5077047;28;20217;-54
2021/11/21 07:23:29;;;;;;;7.30;5.40;;;5.00;99.90;;;;;;5073141;28;20189;-54
2021/11/21 07:25:55;;;;;;;5.73;4.90;;;4.80;99.90;;;;;;5076582;28;20177;-54
2021/11/21 07:28:20;;;;;;;6.90;5.60;;;5.20;99.90;;;;;;5075987;28;20181;-53
2021/11/21 07:30:46;;;;;;;6.57;4.53;;;5.10;99.90;;;;;;5091427;28;20208;-54
2021/11/21 07:33:12;;;;;;;6.97;5.13;;;5.30;99.90;;;;;;5077946;28;20272;-54
2021/11/21 07:35:37;;;;;;;5.30;4.63;;;5.10;99.90;;;;;;5072277;28;20211;-53
2021/11/21 07:38:03;;;;;;;7.70;5.30;;;5.20;99.90;;;;;;5084021;28;20189;-54
2021/11/21 07:40:29;;;;;;;8.60;5.50;;;5.40;99.90;;;;;;5086306;28;20722;-54
2021/11/21 07:42:55;;;;;;;6.47;5.10;;;5.40;99.90;;;;;;5092474;28;20505;-53
2021/11/21 07:45:20;;;;;;;8.57;6.30;;;5.20;99.90;;;;;;5084031;28;20516;-54
2021/11/21 07:47:46;;;;;;;8.63;5.43;;;5.10;99.90;;;;;;5072430;28;20607;-54
2021/11/21 07:50:14;;;;;;;8.63;6.20;;;5.00;99.90;;;;;;5072121;28;20263;-54
2021/11/21 07:52:40;;;;;;;6.78;5.53;;;5.20;99.90;;;;;;5075333;28;20193;-54
2021/11/21 07:55:06;;;;;;;8.48;5.78;;;5.30;99.90;;;;;;5079626;28;20188;-54
2021/11/21 07:57:32;;;;;;;6.70;5.25;;;5.20;99.90;;;;;;5075550;28;20272;-53
2021/11/21 07:59:58;;;;;;;6.22;4.88;;;5.10;99.90;;;;;;5076254;28;20565;-54
2021/11/21 08:02:24;;;;;;;8.17;5.00;;;5.40;99.90;;;;;;5077058;28;20188;-54
2021/11/21 08:04:49;;;;;;;6.00;4.80;;;4.80;99.90;;;;;;5080876;28;20645;-53
2021/11/21 08:07:15;;;;;;;7.80;5.27;;;5.20;99.90;;;;;;5090763;28;20199;-52
2021/11/21 08:09:43;;;;;;;6.80;5.17;;;5.20;99.90;;;;;;5075699;28;20536;-53
2021/11/21 08:12:09;;;;;;;8.93;5.63;;;5.10;99.90;;;;;;5071333;28;20269;-53
2021/11/21 08:14:35;;;;;;;9.73;6.18;;;5.20;99.90;;;;;;5075912;28;20609;-52
2021/11/21 08:17:01;;;;;;;8.53;6.10;;;4.80;99.90;;;;;;5079730;28;20228;-53
2021/11/21 08:19:26;;;;;;;7.90;5.80;;;5.60;99.90;;;;;;5073506;28;20522;-53
2021/11/21 08:21:52;;;;;;;8.30;5.50;;;5.20;99.90;;;;;;5071424;28;20224;-53
2021/11/21 08:24:18;;;;;;;12.50;7.43;;;4.80;99.90;;;;;;5071539;28;20187;-53
2021/11/21 08:26:43;;;;;;;15.37;10.17;;;5.60;99.90;;;;;;5072779;28;20887;-52
2021/11/21 08:29:09;;;;;;;18.00;12.40;;;4.90;99.90;;;;;;5081347;28;20263;-53
2021/11/21 08:31:35;;;;;;;16.10;11.30;;;5.00;99.90;;;;;;5073248;28;20682;-53
2021/11/21 08:34:00;;;;;;;14.70;11.30;;;5.60;99.90;;;;;;5074068;28;20829;-53
2021/11/21 08:36:26;;;;;;;15.80;10.63;;;5.60;99.90;;;;;;5091260;28;20181;-53
2021/11/21 08:38:52;;;;;;;15.00;10.47;;;5.20;99.90;;;;;;5079814;28;20178;-54
2021/11/21 08:41:17;;;;;;;18.83;12.10;;;5.90;99.90;;;;;;5070572;28;20227;-53
2021/11/21 08:43:43;;;;;;;17.80;11.63;;;5.80;99.90;;;;;;5071072;28;20656;-53
2021/11/21 08:46:09;;;;;;;17.30;11.47;;;6.00;99.90;;;;;;5070227;28;20182;-53
2021/11/21 08:48:35;;;;;;;15.37;10.90;;;6.10;99.90;;;;;;5073694;28;20442;-54
2021/11/21 08:51:02;;;;;;;19.50;12.70;;;5.90;99.90;;;;;;5070923;28;20220;-54
2021/11/21 08:53:28;;;;;;;14.95;10.30;;;5.80;99.90;;;;;;5071446;28;20184;-53
2021/11/21 08:55:54;;;;;;;15.17;11.30;;;5.60;99.90;;;;;;5071483;28;20227;-53
2021/11/21 08:58:20;;;;;;;16.80;10.83;;;5.60;99.90;;;;;;5073668;28;20464;-53
2021/11/21 09:00:45;;;;;;;16.03;11.47;;;5.80;99.90;;;;;;5077147;28;20474;-53
2021/11/21 09:03:11;;;;;;;19.50;10.57;;;5.40;99.90;;;;;;5073254;28;20840;-53
2021/11/21 09:05:37;;;;;;;15.27;10.53;;;5.80;99.90;;;;;;5071256;28;20187;-53
2021/11/21 09:08:03;;;;;;;15.07;11.43;;;6.20;99.90;;;;;;5080560;28;20195;-54
2021/11/21 09:10:28;;;;;;;17.00;10.90;;;6.10;99.90;;;;;;5070320;28;20229;-54
2021/11/21 09:12:54;;;;;;;14.20;10.27;;;5.90;99.90;;;;;;5078923;28;20492;-53
2021/11/21 09:15:22;;;;;;;14.80;10.70;;;5.70;99.90;;;;;;5073040;28;20537;-53
2021/11/21 09:17:52;;;;;;;16.63;10.18;;;6.00;99.90;;;;;;5085791;28;20180;-53
2021/11/21 09:20:19;;;;;;;16.30;10.30;;;5.80;99.90;;;;;;5069839;28;20719;-53
2021/11/21 09:22:45;;;;;;;12.77;9.60;;;6.00;99.90;;;;;;5069792;28;20184;-54
2021/11/21 09:25:12;;;;;;;14.02;9.32;;;5.30;99.90;;;;;;5081784;28;20207;-53
2021/11/21 09:27:38;;;;;;;14.63;10.27;;;5.80;99.90;;;;;;5070487;28;20188;-53
2021/11/21 09:30:05;;;;;;;13.20;9.18;;;6.20;99.90;;;;;;5073628;28;20228;-53
2021/11/21 09:32:30;;;;;;;11.95;8.88;;;6.10;99.90;;;;;;5079247;28;20182;-54
2021/11/21 09:34:56;;;;;;;11.83;8.63;;;6.20;99.90;;;;;;5075711;28;20525;-54
2021/11/21 09:37:22;;;;;;;11.90;8.60;;;6.00;99.90;;;;;;5072056;28;20279;-55
2021/11/21 09:39:47;;;;;;;12.17;8.07;;;6.10;99.90;;;;;;5070329;28;20204;-55
2021/11/21 09:42:14;;;;;;;9.20;7.73;;;6.30;99.90;;;;;;5089532;28;20183;-55
2021/11/21 09:44:40;;;;;;;9.70;7.40;;;5.50;99.90;;;;;;5090076;28;20179;-54
2021/11/21 09:47:06;;;;;;;9.77;6.77;;;6.20;99.90;;;;;;5057427;28;20339;-54
2021/11/21 09:49:31;;;;;;;11.17;7.90;;;6.10;99.90;;;;;;5078642;28;20184;-54
2021/11/21 09:51:57;;;;;;;10.03;7.73;;;5.90;99.90;;;;;;5075752;28;20198;-53
2021/11/21 09:54:28;;;;;;;10.70;8.33;;;5.80;99.90;;;;;;5084545;28;20233;-54
2021/11/21 09:56:55;;;;;;;10.82;7.90;;;6.20;99.90;;;;;;5076866;28;20189;-53
2021/11/21 09:59:49;;;;;;;11.38;8.15;;;6.30;99.90;;;;;;5084302;28;20455;-53
2021/11/21 10:02:38;;;;;;;9.20;7.35;;;6.10;99.90;;;;;;5070542;28;20304;-54
2021/11/21 10:05:27;;;;;;;11.02;7.70;;;6.40;99.90;;;;;;5071321;28;20197;-56
2021/11/21 10:08:06;;;;;;;9.88;8.15;;;6.00;99.90;;;;;;5083330;28;20175;-54
2021/11/21 10:10:41;;;;;;;10.43;8.10;;;6.20;99.90;;;;;;5080715;28;20218;-54
2021/11/21 10:13:42;;;;;;;11.80;7.47;;;6.40;99.90;;;;;;5080835;28;20202;-55
2021/11/21 10:16:31;;;;;;;11.07;7.13;;;6.00;99.90;;;;;;5075856;28;20200;-55
2021/11/21 10:19:00;;;;;;;9.93;7.90;;;6.40;99.90;;;;;;5076092;28;20191;-55
2021/11/21 10:21:35;;;;;;;10.35;7.20;;;6.60;99.90;;;;;;5069844;28;20203;-55
2021/11/21 10:24:20;;;;;;;9.45;7.25;;;6.20;99.90;;;;;;5074598;28;20184;-52
2021/11/21 10:26:47;;;;;;;9.43;6.97;;;6.60;99.90;;;;;;5070261;28;20189;-53
2021/11/21 10:29:31;;;;;;;10.05;6.95;;;6.50;99.90;;;;;;5074999;28;20180;-53
2021/11/21 10:31:57;;;;;;;7.22;5.85;;;6.20;99.90;;;;;;5070269;28;20208;-53
2021/11/21 10:34:23;;;;;;;8.45;6.32;;;6.40;99.90;;;;;;5081124;28;20180;-53
2021/11/21 10:36:49;;;;;;;7.50;5.93;;;6.40;99.90;;;;;;5060333;28;20183;-53
2021/11/21 10:39:20;;;;;;;10.63;6.77;;;6.50;99.90;;;;;;5074322;28;20417;-53
2021/11/21 10:41:47;;;;;;;8.68;6.30;;;6.50;99.90;;;;;;5070402;28;20250;-54
2021/11/21 10:44:15;;;;;;;8.07;6.18;;;6.60;99.90;;;;;;5075016;28;20176;-54
2021/11/21 10:46:53;;;;;;;7.57;6.03;;;6.70;99.90;;;;;;5074423;28;20192;-53
2021/11/21 10:49:21;;;;;;;7.63;6.05;;;6.70;99.90;;;;;;5072923;28;20268;-54
2021/11/21 10:51:59;;;;;;;9.63;6.80;;;7.10;99.90;;;;;;5077157;28;20234;-53
2021/11/21 10:54:31;;;;;;;9.05;6.22;;;7.00;99.90;;;;;;5073273;28;20188;-53
2021/11/21 10:57:00;;;;;;;8.60;6.32;;;7.00;99.90;;;;;;5075415;28;20243;-53
2021/11/21 10:59:51;;;;;;;10.10;8.27;;;7.00;99.90;;;;;;5084539;28;20235;-54
2021/11/21 11:02:20;;;;;;;12.63;8.18;;;6.60;99.90;;;;;;5075425;28;20193;-54
2021/11/21 11:05:07;;;;;;;10.73;7.55;;;6.70;99.90;;;;;;5073475;28;20730;-54
2021/11/21 11:07:42;;;;;;;12.55;8.23;;;6.60;99.90;;;;;;5077112;28;20185;-53
2021/11/21 11:10:28;;;;;;;10.23;7.90;;;6.80;99.90;;;;;;5072188;28;20208;-54
2021/11/21 11:13:00;;;;;;;11.50;7.47;;;6.60;99.90;;;;;;5080742;28;20309;-54
2021/11/21 11:15:27;;;;;;;8.60;6.28;;;6.70;99.90;;;;;;5076900;28;20206;-54
2021/11/21 11:17:53;;;;;;;11.50;7.80;;;6.50;99.90;;;;;;5072207;28;20188;-54
2021/11/21 11:20:21;;;;;;;10.03;7.80;;;6.40;99.90;;;;;;5076660;28;20665;-54
2021/11/21 11:22:48;;;;;;;11.60;7.75;;;6.50;99.90;;;;;;5077372;28;20183;-54
2021/11/21 11:25:35;;;;;;;11.63;8.65;;;6.60;99.90;;;;;;5073489;28;20272;-54
2021/11/21 11:28:23;;;;;;;11.90;9.35;;;6.50;99.90;;;;;;5072712;28;20215;-54
2021/11/21 11:30:49;;;;;;;11.75;7.43;;;6.80;99.90;;;;;;5078581;28;20209;-54
2021/11/21 11:33:18;;;;;;;10.20;6.93;;;6.80;99.90;;;;;;5076991;28;20192;-54
2021/11/21 11:35:48;;;;;;;9.38;6.35;;;6.50;99.90;;;;;;5061367;28;20449;-54
2021/11/21 11:38:26;;;;;;;7.80;5.55;;;6.20;99.90;;;;;;5074368;28;20189;-54
2021/11/21 11:41:00;;;;;;;9.70;7.30;;;6.60;99.90;;;;;;5072268;28;20261;-54
2021/11/21 11:43:43;;;;;;;8.90;6.35;;;6.50;99.90;;;;;;5083009;28;20179;-54
2021/11/21 11:46:18;;;;;;;10.77;6.95;;;6.30;99.90;;;;;;5077131;28;20556;-54
2021/11/21 11:48:47;;;;;;;9.02;6.32;;;6.00;99.90;;;;;;5073096;28;20676;-55
2021/11/21 11:51:33;;;;;;;10.77;6.45;;;6.50;99.90;;;;;;5074334;28;20226;-55
2021/11/21 11:54:19;;;;;;;9.50;6.63;;;6.10;99.90;;;;;;5072321;28;20187;-55
2021/11/21 11:56:53;;;;;;;9.77;6.30;;;5.70;99.90;;;;;;5084541;28;20188;-53
2021/11/21 11:59:33;;;;;;;11.52;7.18;;;6.50;99.90;;;;;;5087155;28;20575;-54
2021/11/21 12:02:18;;;;;;;11.52;7.20;;;6.50;99.90;;;;;;5080563;28;20179;-54
2021/11/21 12:04:47;;;;;;;9.82;7.43;;;6.10;99.90;;;;;;5074748;28;20187;-55
2021/11/21 12:07:40;;;;;;;9.02;6.95;;;6.20;99.90;;;;;;5087414;28;20278;-54
2021/11/21 12:10:42;;;;;;;8.43;6.03;;;5.90;99.90;;;;;;5068410;28;20244;-55
2021/11/21 12:13:08;;;;;;;8.57;6.43;;;6.40;99.90;;;;;;5072019;28;20197;-54
2021/11/21 12:15:35;;;;;;;9.40;6.87;;;5.70;99.90;;;;;;5072827;28;20184;-54
2021/11/21 12:18:05;;;;;;;10.88;7.07;;;6.30;99.90;;;;;;5078102;28;20501;-55
2021/11/21 12:20:54;;;;;;;8.43;6.53;;;5.80;99.90;;;;;;5074778;28;20323;-54
2021/11/21 12:23:52;;;;;;;10.00;6.70;;;6.00;99.90;;;;;;5072138;28;20180;-53
2021/11/21 12:26:36;;;;;;;8.32;6.60;;;6.50;99.90;;;;;;5024950;28;20200;-54
2021/11/21 12:29:07;;;;;;;9.57;6.70;;;6.30;99.90;;;;;;5072276;28;20253;-56
2021/11/21 12:31:39;;;;;;;8.32;6.35;;;6.30;99.90;;;;;;5071143;28;20207;-59
2021/11/21 12:34:27;;;;;;;8.63;6.32;;;6.60;99.90;;;;;;5077649;28;20177;-55
2021/11/21 12:37:09;;;;;;;7.47;6.07;;;6.10;99.90;;;;;;5075314;28;20180;-55
2021/11/21 12:39:35;;;;;;;9.05;5.65;;;6.50;99.90;;;;;;5071123;28;20236;-55
2021/11/21 12:42:06;;;;;;;9.20;5.65;;;6.00;99.90;;;;;;5072617;28;20661;-56
2021/11/21 12:44:33;;;;;;;7.32;5.22;;;6.30;99.90;;;;;;5072556;28;20266;-58
2021/11/21 12:47:04;;;;;;;9.57;6.28;;;6.50;99.90;;;;;;5083642;28;20193;-58
2021/11/21 12:49:29;;;;;;;7.15;5.68;;;6.50;99.90;;;;;;5071769;28;20231;-57
2021/11/21 12:52:22;;;;;;;8.37;6.83;;;6.70;99.90;;;;;;5070923;28;20649;-57
2021/11/21 12:54:51;;;;;;;10.13;6.97;;;6.60;99.90;;;;;;5073251;28;20693;-57
2021/11/21 12:57:17;;;;;;;6.43;5.28;;;6.50;99.90;;;;;;5070008;28;20218;-57
2021/11/21 12:59:57;;;;;;;6.73;5.00;;;6.50;99.90;;;;;;5073408;28;20211;-58